Time;durP1;ratioP1;P1;durP2;ratioP2;P2;SDS_P1;SDS_P2;PMS_P1;PMS_P2;Temp;Humidity;BMP_temperature;BMP_pressure;BME280_temperature;BME280_humidity;BME280_pressure;Samples;Min_cycle;Max_cycle;Signal;HPM_P1;HPM_P2
2024/04/19 00:01:55;;;;;;;10.25;7.07;;;5.60;99.90;;;;;;5396023;26;19996;-88
2024/04/19 00:04:21;;;;;;;10.05;7.25;;;5.50;99.90;;;;;;5395537;26;20004;-88
2024/04/19 00:06:46;;;;;;;11.88;6.63;;;5.50;99.90;;;;;;5396173;26;20000;-87
2024/04/19 00:09:12;;;;;;;11.35;6.55;;;5.50;99.90;;;;;;5396664;26;20031;-88
2024/04/19 00:11:37;;;;;;;11.93;6.57;;;5.50;99.90;;;;;;5396223;26;20010;-87
2024/04/19 00:14:03;;;;;;;10.55;7.10;;;5.50;99.90;;;;;;5395024;26;20000;-90
2024/04/19 00:16:29;;;;;;;10.82;7.05;;;5.50;99.90;;;;;;5396796;26;20019;-89
2024/04/19 00:18:54;;;;;;;14.95;8.38;;;5.50;99.90;;;;;;5396447;26;19992;-89
2024/04/19 00:21:21;;;;;;;10.20;8.05;;;5.50;99.90;;;;;;5394280;26;20000;-88
2024/04/19 00:23:47;;;;;;;9.55;6.20;;;5.50;99.90;;;;;;5395874;26;20076;-88
2024/04/19 00:26:12;;;;;;;11.70;7.45;;;5.50;99.90;;;;;;5395756;26;20016;-89
2024/04/19 00:28:38;;;;;;;11.95;6.65;;;5.50;99.90;;;;;;5391670;26;20000;-91
2024/04/19 00:31:04;;;;;;;12.30;7.90;;;5.50;99.90;;;;;;5383855;26;20000;-88
2024/04/19 00:33:30;;;;;;;13.82;7.35;;;5.50;99.90;;;;;;5380810;26;19996;-88
2024/04/19 00:35:55;;;;;;;13.73;7.72;;;5.50;99.90;;;;;;5365614;26;20008;-88
2024/04/19 00:38:21;;;;;;;14.38;7.75;;;5.50;99.90;;;;;;5391653;26;20009;-88
2024/04/19 00:40:47;;;;;;;12.60;6.95;;;5.60;99.90;;;;;;5395056;26;20416;-88
2024/04/19 00:43:12;;;;;;;10.35;6.45;;;5.60;99.90;;;;;;5382876;26;20012;-88
2024/04/19 00:45:39;;;;;;;12.65;7.00;;;5.60;99.90;;;;;;5396615;26;20050;-88
2024/04/19 00:48:19;;;;;;;12.38;7.90;;;5.70;99.90;;;;;;5396463;26;20016;-89
2024/04/19 00:50:48;;;;;;;14.15;6.95;;;5.70;99.90;;;;;;5369874;26;20012;-88
2024/04/19 00:53:20;;;;;;;12.93;5.43;;;5.70;99.90;;;;;;5394719;26;20011;-88
2024/04/19 00:55:47;;;;;;;9.68;5.57;;;5.70;99.90;;;;;;5395798;26;20000;-89
2024/04/19 00:58:13;;;;;;;10.40;6.50;;;5.80;99.90;;;;;;5386233;26;19996;-89
2024/04/19 01:00:39;;;;;;;8.77;5.35;;;5.80;99.90;;;;;;5397080;26;20000;-88
2024/04/19 01:03:04;;;;;;;9.20;6.00;;;5.70;99.90;;;;;;5396584;26;20015;-89
2024/04/19 01:05:31;;;;;;;10.63;6.70;;;5.80;99.90;;;;;;5388575;26;20005;-88
2024/04/19 01:07:57;;;;;;;9.23;6.18;;;5.80;99.90;;;;;;5360584;26;20004;-90
2024/04/19 01:10:23;;;;;;;11.88;6.80;;;5.80;99.90;;;;;;5373736;26;20100;-88
2024/04/19 01:12:49;;;;;;;10.77;6.47;;;5.80;99.90;;;;;;5360870;26;20004;-88
2024/04/19 01:15:19;;;;;;;10.40;6.47;;;5.80;99.90;;;;;;5379258;26;20600;-88
2024/04/19 01:17:45;;;;;;;10.35;6.32;;;5.70;99.90;;;;;;5395542;26;20010;-88
2024/04/19 01:20:10;;;;;;;9.70;5.60;;;5.70;99.90;;;;;;5395393;26;20000;-88
2024/04/19 01:22:37;;;;;;;11.35;6.15;;;5.70;99.90;;;;;;5396071;26;19996;-87
2024/04/19 01:25:13;;;;;;;12.43;6.50;;;5.70;99.90;;;;;;5357414;26;20088;-87
2024/04/19 01:27:39;;;;;;;11.40;6.65;;;5.70;99.90;;;;;;5400853;26;19989;-87
2024/04/19 01:30:06;;;;;;;8.60;5.70;;;5.70;99.90;;;;;;5402671;26;20004;-90
2024/04/19 01:32:31;;;;;;;12.18;6.95;;;5.70;99.90;;;;;;5367588;26;20000;-90
2024/04/19 01:34:57;;;;;;;10.30;5.70;;;5.70;99.90;;;;;;5396633;26;20004;-86
2024/04/19 01:37:23;;;;;;;12.98;6.43;;;5.70;99.90;;;;;;5386510;26;20003;-87
2024/04/19 01:39:48;;;;;;;9.88;6.28;;;5.70;99.90;;;;;;5365942;26;20000;-88
2024/04/19 01:42:14;;;;;;;10.00;6.28;;;5.70;99.90;;;;;;5395345;26;20018;-88
2024/04/19 01:44:39;;;;;;;11.00;5.63;;;5.70;99.90;;;;;;5388944;26;20004;-89
2024/04/19 01:47:05;;;;;;;11.30;5.95;;;5.70;99.90;;;;;;5366260;26;20000;-88
2024/04/19 01:49:31;;;;;;;10.48;6.25;;;5.70;99.90;;;;;;5364896;26;20051;-87
2024/04/19 01:51:57;;;;;;;12.27;6.45;;;5.70;99.90;;;;;;5388076;26;20000;-87
2024/04/19 01:54:23;;;;;;;9.93;5.65;;;5.70;99.90;;;;;;5396147;26;20005;-87
2024/04/19 01:56:49;;;;;;;7.75;5.32;;;5.70;99.90;;;;;;5395293;26;20011;-89
2024/04/19 01:59:14;;;;;;;9.27;5.82;;;5.60;99.90;;;;;;5393952;26;20022;-87
2024/04/19 02:01:40;;;;;;;10.98;6.07;;;5.70;99.90;;;;;;5396226;26;20008;-88
2024/04/19 02:04:05;;;;;;;13.95;6.30;;;5.70;99.90;;;;;;5394421;26;20050;-87
2024/04/19 02:06:31;;;;;;;12.25;7.28;;;5.70;99.90;;;;;;5395068;26;20114;-87
2024/04/19 02:08:57;;;;;;;10.25;7.45;;;5.70;99.90;;;;;;5396136;26;20021;-87
2024/04/19 02:11:22;;;;;;;10.68;6.45;;;5.70;99.90;;;;;;5396278;26;20015;-88
2024/04/19 02:13:48;;;;;;;11.32;7.53;;;5.70;99.90;;;;;;5390367;26;20015;-88
2024/04/19 02:16:14;;;;;;;10.52;7.10;;;5.70;99.90;;;;;;5394192;26;20024;-86
2024/04/19 02:18:39;;;;;;;10.05;6.45;;;5.70;99.90;;;;;;5381435;26;20003;-87
2024/04/19 02:21:05;;;;;;;12.32;6.70;;;5.70;99.90;;;;;;5380566;26;20075;-87
2024/04/19 02:23:37;;;;;;;9.75;6.50;;;5.70;99.90;;;;;;5391402;26;20454;-87
2024/04/19 02:26:03;;;;;;;10.00;6.53;;;5.70;99.90;;;;;;5364065;26;20440;-86
2024/04/19 02:31:13;;;;;;;9.13;6.60;;;5.70;99.90;;;;;;5364805;26;20012;-89
2024/04/19 02:33:39;;;;;;;12.57;7.00;;;5.70;99.90;;;;;;5391544;26;20016;-87
2024/04/19 02:36:06;;;;;;;13.25;7.47;;;5.70;99.90;;;;;;5394691;26;20436;-88
2024/04/19 02:38:32;;;;;;;11.40;6.80;;;5.60;99.90;;;;;;5363642;26;20008;-88
2024/04/19 02:40:58;;;;;;;13.88;7.65;;;5.70;99.90;;;;;;5392453;26;20168;-87
2024/04/19 02:43:23;;;;;;;11.15;7.47;;;5.70;99.90;;;;;;5393646;26;20516;-87
2024/04/19 02:45:49;;;;;;;13.10;7.72;;;5.70;99.90;;;;;;5395589;26;20000;-86
2024/04/19 02:48:14;;;;;;;11.95;6.35;;;5.70;99.90;;;;;;5393602;26;20016;-87
2024/04/19 02:50:40;;;;;;;11.13;7.47;;;5.70;99.90;;;;;;5395519;26;20004;-86
2024/04/19 02:53:06;;;;;;;10.02;6.05;;;5.70;99.90;;;;;;5387786;26;20008;-86
2024/04/19 02:55:31;;;;;;;12.45;7.03;;;5.70;99.90;;;;;;5393616;26;19996;-85
2024/04/19 02:57:57;;;;;;;12.75;7.38;;;5.70;99.90;;;;;;5393940;26;20009;-87
2024/04/19 03:00:23;;;;;;;12.30;5.93;;;5.70;99.90;;;;;;5381732;26;20004;-87
2024/04/19 03:02:48;;;;;;;11.40;7.18;;;5.70;99.90;;;;;;5394295;26;20012;-87
2024/04/19 03:05:14;;;;;;;9.73;6.50;;;5.70;99.90;;;;;;5391700;26;20529;-89
2024/04/19 03:07:40;;;;;;;10.93;6.32;;;5.70;99.90;;;;;;5393344;26;20015;-86
2024/04/19 03:10:06;;;;;;;11.30;6.00;;;5.70;99.90;;;;;;5381622;26;20005;-86
2024/04/19 03:12:31;;;;;;;10.77;6.85;;;5.70;99.90;;;;;;5393799;26;20051;-87
2024/04/19 03:14:57;;;;;;;14.80;6.00;;;5.70;99.90;;;;;;5394252;26;20019;-87
2024/04/19 03:17:23;;;;;;;12.07;6.85;;;5.70;99.90;;;;;;5376184;26;19997;-86
2024/04/19 03:19:48;;;;;;;10.50;6.13;;;5.80;99.90;;;;;;5384125;26;20006;-86
2024/04/19 03:22:14;;;;;;;12.75;8.10;;;5.80;99.90;;;;;;5372755;26;20052;-87
2024/04/19 03:24:40;;;;;;;12.77;6.78;;;5.80;99.90;;;;;;5357177;26;19997;-89
2024/04/19 03:27:06;;;;;;;12.10;6.88;;;5.80;99.90;;;;;;5377485;26;19996;-87
2024/04/19 03:29:31;;;;;;;9.98;5.53;;;5.80;99.90;;;;;;5363298;26;20000;-87
2024/04/19 03:31:57;;;;;;;11.02;6.15;;;5.80;99.90;;;;;;5393375;26;20000;-88
2024/04/19 03:34:24;;;;;;;10.25;8.10;;;5.70;99.90;;;;;;5392866;26;20000;-88
2024/04/19 03:36:50;;;;;;;10.23;8.15;;;5.70;99.90;;;;;;5393117;26;20123;-87
2024/04/19 03:39:16;;;;;;;9.32;6.00;;;5.70;99.90;;;;;;5391569;26;20011;-87
2024/04/19 03:41:43;;;;;;;16.35;8.00;;;5.70;99.90;;;;;;5393540;26;20489;-87
2024/04/19 03:46:53;;;;;;;11.75;6.57;;;5.70;99.90;;;;;;5390808;26;20074;-89
2024/04/19 03:49:19;;;;;;;11.98;6.78;;;5.70;99.90;;;;;;5397417;26;20036;-86
2024/04/19 03:51:45;;;;;;;12.27;7.07;;;5.70;99.90;;;;;;5398319;26;20015;-87
2024/04/19 03:54:10;;;;;;;14.10;7.03;;;5.70;99.90;;;;;;5392378;26;20011;-87
2024/04/19 03:56:36;;;;;;;10.35;7.15;;;5.70;99.90;;;;;;5388494;26;19992;-88
2024/04/19 03:59:02;;;;;;;11.38;7.28;;;5.70;99.90;;;;;;5385171;26;20426;-89
2024/04/19 04:01:27;;;;;;;13.27;7.90;;;5.70;99.90;;;;;;5390305;26;19996;-89
2024/04/19 04:03:53;;;;;;;14.23;7.88;;;5.70;99.90;;;;;;5385948;26;20046;-90
2024/04/19 04:06:19;;;;;;;12.90;7.50;;;5.80;99.90;;;;;;5372230;26;20038;-88
2024/04/19 04:08:48;;;;;;;13.63;7.07;;;5.70;99.90;;;;;;5375241;26;19996;-87
2024/04/19 04:11:13;;;;;;;11.25;7.25;;;5.70;99.90;;;;;;5379467;26;19996;-87
2024/04/19 04:13:40;;;;;;;13.02;7.22;;;5.70;99.90;;;;;;5388461;26;20010;-87
2024/04/19 04:16:06;;;;;;;14.80;7.93;;;5.80;99.90;;;;;;5386977;26;20012;-87
2024/04/19 04:18:34;;;;;;;13.25;7.65;;;5.70;99.90;;;;;;5357333;26;20538;-88
2024/04/19 04:21:03;;;;;;;17.10;7.70;;;5.80;99.90;;;;;;5372437;26;20016;-87
2024/04/19 04:23:31;;;;;;;16.20;7.35;;;5.70;99.90;;;;;;5374853;26;20039;-89
2024/04/19 04:25:57;;;;;;;12.95;7.45;;;5.70;99.90;;;;;;5345208;26;19996;-89
2024/04/19 04:28:23;;;;;;;11.57;7.60;;;5.60;99.90;;;;;;5351299;26;20000;-89
2024/04/19 04:30:51;;;;;;;12.32;7.85;;;5.70;99.90;;;;;;5362087;26;20076;-88
2024/04/19 04:33:17;;;;;;;12.70;7.53;;;5.70;99.90;;;;;;5374558;26;20016;-90
2024/04/19 04:35:45;;;;;;;13.32;7.63;;;5.70;99.90;;;;;;5393244;26;20000;-89
2024/04/19 04:38:11;;;;;;;16.05;8.52;;;5.70;99.90;;;;;;5357451;26;19996;-89
2024/04/19 04:40:36;;;;;;;13.50;7.15;;;5.70;99.90;;;;;;5392120;26;20051;-87
2024/04/19 04:43:03;;;;;;;13.52;8.15;;;5.70;99.90;;;;;;5392037;26;20001;-87
2024/04/19 04:45:29;;;;;;;15.10;8.00;;;5.70;99.90;;;;;;5394890;26;19992;-89
2024/04/19 04:47:55;;;;;;;12.77;8.48;;;5.70;99.90;;;;;;5393649;26;20000;-87
2024/04/19 04:50:22;;;;;;;14.32;8.93;;;5.70;99.90;;;;;;5392681;26;19992;-87
2024/04/19 04:52:48;;;;;;;13.70;7.88;;;5.70;99.90;;;;;;5381607;26;20008;-87
2024/04/19 04:55:14;;;;;;;14.75;7.22;;;5.70;99.90;;;;;;5377231;26;20008;-87
2024/04/19 04:57:40;;;;;;;13.82;8.38;;;5.70;99.90;;;;;;5394793;26;20000;-87
2024/04/19 05:00:08;;;;;;;13.95;7.93;;;5.80;99.90;;;;;;5393591;26;19996;-87
2024/04/19 05:02:34;;;;;;;13.90;8.20;;;5.70;99.90;;;;;;5370914;26;19993;-88
2024/04/19 05:05:00;;;;;;;14.70;7.82;;;5.70;99.90;;;;;;5376542;26;20000;-89
2024/04/19 05:07:26;;;;;;;11.82;8.15;;;5.80;99.90;;;;;;5358555;26;20564;-88
2024/04/19 05:09:52;;;;;;;12.32;7.85;;;5.70;99.90;;;;;;5384673;26;20054;-88
2024/04/19 05:12:20;;;;;;;14.07;8.35;;;5.80;99.90;;;;;;5391638;26;19992;-88
2024/04/19 05:14:46;;;;;;;12.80;8.13;;;5.70;99.90;;;;;;5382857;26;20037;-88
2024/04/19 05:17:12;;;;;;;12.65;7.93;;;5.80;99.90;;;;;;5394662;26;20016;-89
2024/04/19 05:19:37;;;;;;;15.15;9.30;;;5.80;99.90;;;;;;5396211;26;20436;-87
2024/04/19 05:22:04;;;;;;;13.20;8.88;;;5.80;99.90;;;;;;5395768;26;20015;-88
2024/04/19 05:24:30;;;;;;;15.98;8.65;;;5.80;99.90;;;;;;5395985;26;20004;-88
2024/04/19 05:26:56;;;;;;;14.00;7.25;;;5.90;99.90;;;;;;5398493;26;20019;-87
2024/04/19 05:29:24;;;;;;;16.17;9.45;;;5.80;99.90;;;;;;5366994;26;20008;-88
2024/04/19 05:31:50;;;;;;;;;;;5.80;99.90;;;;;;5398940;26;20064;-88
2024/04/19 05:34:16;;;;;;;14.70;8.60;;;5.80;99.90;;;;;;5398943;26;19933;-88
2024/04/19 05:36:42;;;;;;;18.75;13.02;;;5.80;99.90;;;;;;5396960;26;20007;-87
2024/04/19 05:39:07;;;;;;;21.13;10.90;;;5.80;99.90;;;;;;5397649;26;20024;-88
2024/04/19 05:41:33;;;;;;;17.17;10.13;;;5.80;99.90;;;;;;5397068;26;19993;-89
2024/04/19 05:43:58;;;;;;;31.08;20.42;;;5.80;99.90;;;;;;5395308;26;20053;-89
2024/04/19 05:46:24;;;;;;;13.68;8.48;;;5.80;99.90;;;;;;5395039;26;20525;-89
2024/04/19 05:48:50;;;;;;;16.55;10.15;;;5.80;99.90;;;;;;5396088;26;20336;-90
2024/04/19 05:51:16;;;;;;;18.65;9.68;;;5.80;99.90;;;;;;5395142;26;20011;-89
2024/04/19 05:53:41;;;;;;;20.50;8.20;;;5.80;99.90;;;;;;5394029;26;20024;-88
2024/04/19 05:56:07;;;;;;;14.30;9.73;;;5.80;99.90;;;;;;5394580;26;19996;-89
2024/04/19 05:58:32;;;;;;;16.30;8.52;;;5.80;99.90;;;;;;5392917;26;20012;-89
2024/04/19 06:00:58;;;;;;;17.35;9.23;;;5.80;99.90;;;;;;5362424;26;20011;-89
2024/04/19 06:03:24;;;;;;;14.32;8.52;;;5.80;99.90;;;;;;5392163;26;19996;-89
2024/04/19 06:05:49;;;;;;;14.77;8.95;;;5.90;99.90;;;;;;5391474;26;20011;-90
2024/04/19 06:08:15;;;;;;;13.63;9.45;;;5.90;99.90;;;;;;5391654;26;20009;-89
2024/04/19 06:10:41;;;;;;;13.43;7.30;;;5.90;99.90;;;;;;5403127;26;20045;-91
2024/04/19 06:13:06;;;;;;;14.43;8.32;;;6.00;99.90;;;;;;5401519;26;19996;-89
2024/04/19 06:15:32;;;;;;;12.57;7.07;;;5.90;99.90;;;;;;5393480;26;20016;-88
2024/04/19 06:17:57;;;;;;;13.73;7.65;;;6.00;99.90;;;;;;5390321;26;20011;-89
2024/04/19 06:20:23;;;;;;;14.02;8.00;;;6.00;99.90;;;;;;5388854;26;20004;-89
2024/04/19 06:22:49;;;;;;;14.75;9.02;;;6.00;99.90;;;;;;5353860;26;20007;-89
2024/04/19 06:25:14;;;;;;;14.02;7.65;;;5.90;99.90;;;;;;5351189;26;20036;-89
2024/04/19 06:27:40;;;;;;;12.30;8.27;;;5.90;99.90;;;;;;5381987;26;20078;-89
2024/04/19 06:30:06;;;;;;;13.57;7.82;;;5.90;99.90;;;;;;5365654;26;20000;-90
2024/04/19 06:32:32;;;;;;;11.70;7.50;;;5.90;99.90;;;;;;5348924;26;20011;-91
2024/04/19 06:34:57;;;;;;;13.40;7.75;;;5.90;99.90;;;;;;5382062;26;20009;-89
2024/04/19 06:37:25;;;;;;;14.25;8.30;;;5.90;99.90;;;;;;5380316;26;20015;-90
2024/04/19 06:39:50;;;;;;;14.68;7.95;;;5.90;99.90;;;;;;5375908;26;19992;-90
2024/04/19 06:42:16;;;;;;;15.40;8.40;;;5.90;99.90;;;;;;5344832;26;20462;-92
2024/04/19 06:44:41;;;;;;;14.70;8.30;;;5.90;99.90;;;;;;5370791;26;20000;-90
2024/04/19 06:47:07;;;;;;;18.08;7.80;;;6.00;99.90;;;;;;5366211;26;20008;-90
2024/04/19 06:49:33;;;;;;;15.65;9.35;;;5.90;99.90;;;;;;5366170;26;19996;-91
2024/04/19 06:51:58;;;;;;;15.75;9.98;;;6.00;99.90;;;;;;5351435;26;20004;-92
2024/04/19 06:54:24;;;;;;;16.35;9.07;;;5.90;99.90;;;;;;5344362;26;20012;-90
2024/04/19 06:56:49;;;;;;;13.27;7.75;;;6.00;99.90;;;;;;5365159;26;20000;-90
2024/04/19 06:59:15;;;;;;;12.98;8.20;;;6.00;99.90;;;;;;5379711;26;20000;-90
2024/04/19 07:01:43;;;;;;;12.10;8.07;;;5.90;99.90;;;;;;5379032;26;20409;-91
2024/04/19 07:04:08;;;;;;;12.02;7.25;;;6.00;99.90;;;;;;5376809;26;20010;-92
2024/04/19 07:06:34;;;;;;;12.07;7.22;;;5.90;99.90;;;;;;5377448;26;20517;-90
2024/04/19 07:09:00;;;;;;;9.57;6.63;;;5.90;99.90;;;;;;5373667;26;20007;-91
2024/04/19 07:11:25;;;;;;;10.77;7.18;;;6.00;99.90;;;;;;5373145;26;20388;-91
2024/04/19 07:13:51;;;;;;;9.90;5.90;;;5.90;99.90;;;;;;5378355;26;20002;-91
2024/04/19 07:16:17;;;;;;;13.63;6.72;;;5.90;99.90;;;;;;5392326;26;19992;-91
2024/04/19 07:18:46;;;;;;;11.18;7.20;;;5.90;99.90;;;;;;5394034;26;20010;-91
2024/04/19 07:21:11;;;;;;;11.68;7.05;;;5.90;99.90;;;;;;5394425;26;20015;-94
2024/04/19 07:23:37;;;;;;;12.60;7.90;;;5.80;99.90;;;;;;5343945;26;20005;-91
2024/04/19 07:26:03;;;;;;;10.00;6.28;;;5.70;99.90;;;;;;5372709;26;20000;-91
2024/04/19 07:28:29;;;;;;;10.57;6.28;;;5.70;99.90;;;;;;5368110;26;20051;-91
2024/04/19 07:30:54;;;;;;;15.93;8.05;;;5.70;99.90;;;;;;5372792;26;20008;-91
2024/04/19 07:33:20;;;;;;;9.82;6.63;;;5.60;99.90;;;;;;5358980;26;20007;-93
2024/04/19 07:35:46;;;;;;;11.68;7.43;;;5.60;99.90;;;;;;5372226;26;19992;-95
2024/04/19 07:38:12;;;;;;;13.02;7.15;;;5.60;99.90;;;;;;5384981;26;20004;-91
2024/04/19 07:40:38;;;;;;;10.85;7.53;;;5.50;99.90;;;;;;5370613;26;20382;-93
2024/04/19 07:43:04;;;;;;;11.38;6.55;;;5.50;99.90;;;;;;5346678;26;19997;-91
2024/04/19 07:45:30;;;;;;;9.63;6.40;;;5.30;99.90;;;;;;5351392;26;20000;-91
2024/04/19 07:47:56;;;;;;;10.57;6.13;;;5.30;99.90;;;;;;5382713;26;20077;-90
2024/04/19 07:50:22;;;;;;;12.60;6.90;;;5.20;99.90;;;;;;5351883;26;20006;-90
2024/04/19 07:52:49;;;;;;;10.13;6.20;;;5.30;99.90;;;;;;5381993;26;20044;-91
2024/04/19 07:55:15;;;;;;;11.70;7.32;;;5.40;99.90;;;;;;5381545;26;20036;-91
2024/04/19 07:57:50;;;;;;;11.35;6.93;;;5.30;99.90;;;;;;5361916;26;20016;-91
2024/04/19 08:00:17;;;;;;;9.85;5.78;;;5.30;99.90;;;;;;5351075;26;20002;-90
2024/04/19 08:02:46;;;;;;;11.48;6.97;;;5.30;99.90;;;;;;5382257;26;20012;-91
2024/04/19 08:05:13;;;;;;;11.63;6.38;;;5.30;99.90;;;;;;5383441;26;20004;-89
2024/04/19 08:07:38;;;;;;;8.55;5.20;;;5.40;99.90;;;;;;5381747;26;20004;-90
2024/04/19 08:10:05;;;;;;;8.75;6.35;;;5.30;99.90;;;;;;5367072;26;20008;-90
2024/04/19 08:12:31;;;;;;;9.38;5.80;;;5.40;99.90;;;;;;5375269;26;20047;-91
2024/04/19 08:14:56;;;;;;;10.13;6.57;;;5.30;99.90;;;;;;5381777;26;20012;-91
2024/04/19 08:17:22;;;;;;;8.32;5.40;;;5.30;99.90;;;;;;5351423;26;20004;-90
2024/04/19 08:19:49;;;;;;;8.27;5.90;;;5.40;99.90;;;;;;5368199;26;20000;-91
2024/04/19 08:22:15;;;;;;;8.77;5.20;;;5.30;99.90;;;;;;5368284;26;20004;-91
2024/04/19 08:24:41;;;;;;;11.48;5.75;;;5.30;99.90;;;;;;5372149;26;20001;-90
2024/04/19 08:27:07;;;;;;;8.23;5.25;;;5.40;99.90;;;;;;5366227;26;20037;-90
2024/04/19 08:29:33;;;;;;;11.90;6.82;;;5.40;99.90;;;;;;5384579;26;20008;-90
2024/04/19 08:31:58;;;;;;;11.00;6.88;;;5.40;99.90;;;;;;5405448;26;19988;-94
2024/04/19 08:34:24;;;;;;;13.60;7.88;;;5.40;99.90;;;;;;5404033;26;19988;-90
2024/04/19 08:36:50;;;;;;;9.77;7.07;;;5.40;99.90;;;;;;5355243;26;19996;-90
2024/04/19 08:39:15;;;;;;;11.68;6.28;;;5.40;99.90;;;;;;5380071;26;20029;-92
2024/04/19 08:41:42;;;;;;;9.65;6.32;;;5.40;99.90;;;;;;5368669;26;20011;-91
2024/04/19 08:44:09;;;;;;;10.50;5.85;;;5.30;99.90;;;;;;5368517;26;20005;-91
2024/04/19 08:46:37;;;;;;;12.77;6.22;;;5.30;99.90;;;;;;5380116;26;20017;-90
2024/04/19 08:49:04;;;;;;;9.02;5.47;;;5.30;99.90;;;;;;5352314;26;20047;-90
2024/04/19 08:51:30;;;;;;;6.28;4.63;;;5.30;99.90;;;;;;5381714;26;19996;-90
2024/04/19 08:53:57;;;;;;;9.27;6.10;;;5.30;99.90;;;;;;5351557;26;20454;-91
2024/04/19 08:56:25;;;;;;;8.95;6.93;;;5.30;99.90;;;;;;5351201;26;20007;-91
2024/04/19 08:58:53;;;;;;;7.93;4.53;;;5.30;99.90;;;;;;5380654;26;20004;-91
2024/04/19 09:01:20;;;;;;;8.80;5.63;;;5.30;99.90;;;;;;5383330;26;20015;-91
2024/04/19 09:03:46;;;;;;;9.05;6.03;;;5.30;99.90;;;;;;5382671;26;20015;-90
2024/04/19 09:06:13;;;;;;;12.82;6.82;;;5.30;99.90;;;;;;5381724;26;20454;-90
2024/04/19 09:08:39;;;;;;;9.82;6.30;;;5.30;99.90;;;;;;5363140;26;20021;-90
2024/04/19 09:11:12;;;;;;;11.02;7.28;;;5.30;99.90;;;;;;5377867;26;20005;-90
2024/04/19 09:13:38;;;;;;;9.60;6.40;;;5.40;99.90;;;;;;5381123;26;20000;-90
2024/04/19 09:16:04;;;;;;;10.38;6.50;;;5.50;99.90;;;;;;5369292;26;20000;-90
2024/04/19 09:18:30;;;;;;;7.72;4.75;;;5.50;99.90;;;;;;5370877;26;20015;-91
2024/04/19 09:20:56;;;;;;;8.40;5.28;;;5.60;99.90;;;;;;5381568;26;20475;-89
2024/04/19 09:23:22;;;;;;;8.18;5.53;;;5.60;99.90;;;;;;5377782;26;20004;-92
2024/04/19 09:25:54;;;;;;;6.40;4.68;;;5.60;99.90;;;;;;5362865;26;19993;-90
2024/04/19 09:28:22;;;;;;;7.38;5.28;;;5.60;99.90;;;;;;5391203;26;20051;-90
2024/04/19 09:30:54;;;;;;;10.57;5.90;;;5.60;99.90;;;;;;5367222;26;20001;-91
2024/04/19 09:33:22;;;;;;;10.63;6.18;;;5.50;99.90;;;;;;5350528;26;20000;-90
2024/04/19 09:35:50;;;;;;;10.82;6.72;;;5.60;99.90;;;;;;5350328;26;20008;-91
2024/04/19 09:38:21;;;;;;;9.82;5.85;;;5.60;99.90;;;;;;5378319;26;20004;-91
2024/04/19 09:40:47;;;;;;;9.98;6.00;;;5.60;99.90;;;;;;5364904;26;20008;-91
2024/04/19 09:43:21;;;;;;;10.25;6.40;;;5.60;99.90;;;;;;5344908;26;20008;-91
2024/04/19 09:45:52;;;;;;;13.38;8.10;;;5.70;99.90;;;;;;5357400;26;20012;-91
2024/04/19 09:48:19;;;;;;;9.20;5.68;;;5.60;99.90;;;;;;5372285;26;19997;-90
2024/04/19 09:50:49;;;;;;;10.32;6.28;;;5.60;99.90;;;;;;5371155;26;19996;-90
2024/04/19 09:53:19;;;;;;;11.55;7.15;;;5.70;99.90;;;;;;5365486;26;20077;-91
2024/04/19 09:56:05;;;;;;;12.27;6.88;;;5.70;99.90;;;;;;5352681;26;20380;-90
2024/04/19 09:58:31;;;;;;;10.18;5.97;;;5.70;99.90;;;;;;5367182;26;20028;-91
2024/04/19 10:01:00;;;;;;;12.00;6.70;;;5.70;99.90;;;;;;5377989;26;20091;-90
2024/04/19 10:03:28;;;;;;;10.68;5.95;;;5.80;99.90;;;;;;5378088;26;20011;-91
2024/04/19 10:05:54;;;;;;;;;;;5.90;99.90;;;;;;5374375;26;20016;-91
2024/04/19 10:08:23;;;;;;;9.82;6.75;;;5.90;99.90;;;;;;5370214;26;19933;-92
2024/04/19 10:10:51;;;;;;;9.18;6.63;;;5.90;99.90;;;;;;5383216;26;20032;-91
2024/04/19 10:13:18;;;;;;;13.00;7.45;;;5.90;99.90;;;;;;5381052;26;20007;-92
2024/04/19 10:15:46;;;;;;;12.90;6.88;;;5.90;99.90;;;;;;5374398;26;20008;-92
2024/04/19 10:18:12;;;;;;;12.23;8.18;;;6.00;99.90;;;;;;5368789;26;19997;-91
2024/04/19 10:20:41;;;;;;;11.23;7.18;;;6.00;99.90;;;;;;5383270;26;20000;-91
2024/04/19 10:23:09;;;;;;;10.43;7.15;;;6.00;99.90;;;;;;5368113;26;20369;-93
2024/04/19 10:25:37;;;;;;;11.30;6.55;;;6.00;99.90;;;;;;5383553;26;20005;-91
2024/04/19 10:28:06;;;;;;;11.23;6.78;;;6.00;99.90;;;;;;5351149;26;20040;-91
2024/04/19 10:30:32;;;;;;;10.98;7.32;;;6.00;99.90;;;;;;5351771;26;20000;-91
2024/04/19 10:32:58;;;;;;;11.90;6.97;;;6.00;99.90;;;;;;5381394;26;20019;-91
2024/04/19 10:35:24;;;;;;;10.55;6.53;;;6.10;99.90;;;;;;5382208;26;20042;-91
2024/04/19 10:37:50;;;;;;;9.02;5.53;;;6.10;99.90;;;;;;5375901;26;20012;-90
2024/04/19 10:40:16;;;;;;;13.13;7.22;;;6.10;99.90;;;;;;5336892;26;20082;-91
2024/04/19 10:42:42;;;;;;;11.40;6.75;;;6.00;99.90;;;;;;5336954;26;20000;-91
2024/04/19 10:45:14;;;;;;;12.38;6.80;;;6.10;99.90;;;;;;5339200;26;20357;-91
2024/04/19 10:47:41;;;;;;;7.28;5.50;;;6.20;99.90;;;;;;5370107;26;20036;-91
2024/04/19 10:50:07;;;;;;;9.35;6.40;;;6.10;99.90;;;;;;5373702;26;19996;-91
2024/04/19 10:52:34;;;;;;;11.05;6.47;;;6.10;99.90;;;;;;5382986;26;19997;-93
2024/04/19 10:55:00;;;;;;;11.18;7.03;;;6.10;99.90;;;;;;5401898;26;20016;-93
2024/04/19 10:57:29;;;;;;;10.07;5.68;;;6.10;99.90;;;;;;5402585;26;20034;-94
2024/04/19 10:59:55;;;;;;;11.40;7.32;;;5.90;99.90;;;;;;5352866;26;20070;-93
2024/04/19 11:02:22;;;;;;;11.10;7.03;;;6.00;99.90;;;;;;5376553;26;20443;-91
2024/04/19 11:04:48;;;;;;;12.65;8.30;;;6.00;99.90;;;;;;5379766;26;20062;-92
2024/04/19 11:07:14;;;;;;;14.35;7.85;;;6.00;99.90;;;;;;5355334;26;20012;-89
2024/04/19 11:09:40;;;;;;;11.73;7.25;;;6.00;99.90;;;;;;5369805;26;20077;-91
2024/04/19 11:12:06;;;;;;;11.50;7.85;;;5.90;99.90;;;;;;5382377;26;20509;-92
2024/04/19 11:14:31;;;;;;;10.57;7.72;;;5.90;99.90;;;;;;5358553;26;20019;-90
2024/04/19 11:16:57;;;;;;;11.32;6.75;;;6.00;99.90;;;;;;5366577;26;20008;-90
2024/04/19 11:19:23;;;;;;;9.35;6.35;;;6.00;99.90;;;;;;5347615;26;20001;-87
2024/04/19 11:21:53;;;;;;;9.27;6.22;;;5.90;99.90;;;;;;5387340;26;20011;-92
2024/04/19 11:24:34;;;;;;;11.10;7.05;;;5.80;99.90;;;;;;5393894;26;20000;-94
2024/04/19 11:27:03;;;;;;;12.52;6.25;;;6.00;99.90;;;;;;5375395;26;19997;-96
2024/04/19 11:29:40;;;;;;;12.25;6.55;;;5.90;99.90;;;;;;5404853;26;20015;-93
2024/04/19 11:32:07;;;;;;;8.20;6.35;;;5.90;99.90;;;;;;5384766;21;20315;-89
2024/04/19 11:34:33;;;;;;;13.43;7.35;;;6.00;99.90;;;;;;5407153;26;20095;-90
2024/04/19 11:37:03;;;;;;;9.68;7.80;;;5.90;99.90;;;;;;5379106;26;20005;-88
2024/04/19 11:39:32;;;;;;;11.75;6.88;;;5.90;99.90;;;;;;5379784;26;19997;-88
2024/04/19 11:42:01;;;;;;;12.07;7.38;;;5.90;99.90;;;;;;5384218;26;20391;-88
2024/04/19 11:44:27;;;;;;;13.57;7.03;;;5.80;99.90;;;;;;5385390;26;20045;-89
2024/04/19 11:47:02;;;;;;;12.48;7.53;;;5.90;99.90;;;;;;5380138;26;20004;-89
2024/04/19 11:49:27;;;;;;;12.23;6.65;;;5.80;99.90;;;;;;5380094;26;20061;-88
2024/04/19 11:51:53;;;;;;;10.90;7.10;;;5.80;99.90;;;;;;5377537;26;20311;-89
2024/04/19 11:54:19;;;;;;;11.35;6.68;;;5.80;99.90;;;;;;5386544;26;20003;-88
2024/04/19 11:56:50;;;;;;;11.80;7.80;;;5.80;99.90;;;;;;5386135;26;20450;-89
2024/04/19 11:59:19;;;;;;;11.38;7.85;;;5.90;99.90;;;;;;5381667;26;20077;-91
2024/04/19 12:01:45;;;;;;;14.00;7.05;;;5.90;99.90;;;;;;5410284;26;19996;-90
2024/04/19 12:04:37;;;;;;;15.48;6.82;;;6.00;99.90;;;;;;5342718;26;20458;-91
2024/04/19 12:07:08;;;;;;;12.23;7.07;;;6.00;99.90;;;;;;5382244;26;20000;-90
2024/04/19 12:09:34;;;;;;;11.00;6.53;;;6.00;99.90;;;;;;5376746;26;19996;-90
2024/04/19 12:12:03;;;;;;;11.45;7.18;;;6.00;99.90;;;;;;5400782;26;20000;-91
2024/04/19 12:14:35;;;;;;;10.10;6.43;;;6.00;99.90;;;;;;5379503;26;20451;-90
2024/04/19 12:20:12;;;;;;;12.05;6.97;;;6.00;99.90;;;;;;5416393;26;20014;-90
2024/04/19 12:22:41;;;;;;;10.88;6.32;;;6.00;99.90;;;;;;5349532;26;20101;-91
2024/04/19 12:25:06;;;;;;;13.32;8.15;;;6.00;99.90;;;;;;5378182;26;20004;-92
2024/04/19 12:27:32;;;;;;;12.52;6.72;;;6.00;99.90;;;;;;5382747;26;20000;-91
2024/04/19 12:30:00;;;;;;;12.05;7.07;;;6.10;99.90;;;;;;5380688;26;20008;-89
2024/04/19 12:32:26;;;;;;;11.90;7.55;;;6.10;99.90;;;;;;5374525;26;20403;-90
2024/04/19 12:34:51;;;;;;;12.48;6.40;;;6.00;99.90;;;;;;5373804;26;20053;-89
2024/04/19 12:37:17;;;;;;;10.82;6.55;;;6.10;99.90;;;;;;5377066;26;19996;-91
2024/04/19 12:39:43;;;;;;;11.65;6.30;;;6.10;99.90;;;;;;5366018;26;20458;-90
2024/04/19 12:42:11;;;;;;;14.32;7.80;;;6.10;99.90;;;;;;5380820;26;20727;-91
2024/04/19 12:44:47;;;;;;;11.30;6.57;;;6.10;99.90;;;;;;5382408;26;20011;-91
2024/04/19 12:47:15;;;;;;;12.65;6.95;;;6.10;99.90;;;;;;5382567;26;20000;-90
2024/04/19 12:49:40;;;;;;;12.85;8.45;;;6.10;99.90;;;;;;5350816;26;19996;-91
2024/04/19 12:52:06;;;;;;;11.05;6.30;;;6.10;99.90;;;;;;5381268;26;20016;-91
2024/04/19 12:54:37;;;;;;;7.38;5.78;;;6.10;99.90;;;;;;5381149;26;20019;-90